createdAt,value
2023-02-02T00:00:24.309Z,81
2023-02-02T00:00:53.071Z,81
2023-02-02T00:01:25.688Z,81
2023-02-02T00:01:56.759Z,81
2023-02-02T00:02:29.854Z,81
2023-02-02T00:03:01.092Z,81
2023-02-02T00:03:33.768Z,82
2023-02-02T00:04:05.158Z,82
2023-02-02T00:04:38.077Z,82
2023-02-02T00:05:09.248Z,82
2023-02-02T00:05:41.562Z,82
2023-02-02T00:06:12.871Z,82
2023-02-02T00:06:45.683Z,82
2023-02-02T00:07:16.945Z,82
2023-02-02T00:07:49.841Z,82
2023-02-02T00:08:20.911Z,82
2023-02-02T00:08:53.797Z,83
2023-02-02T00:09:24.992Z,83
2023-02-02T00:09:57.579Z,82
2023-02-02T00:10:29.201Z,82
2023-02-02T00:11:01.599Z,82
2023-02-02T00:11:32.780Z,82
2023-02-02T00:12:05.946Z,82
2023-02-02T00:12:36.804Z,82
2023-02-02T00:13:09.483Z,82
2023-02-02T00:13:40.822Z,82
2023-02-02T00:14:13.635Z,82
2023-02-02T00:14:44.765Z,82
2023-02-02T00:15:18.752Z,82
2023-02-02T00:15:49.199Z,82
2023-02-02T00:16:21.623Z,82
2023-02-02T00:16:52.868Z,82
2023-02-02T00:17:25.705Z,82
2023-02-02T00:17:57.022Z,82
2023-02-02T00:18:29.583Z,82
2023-02-02T00:19:00.864Z,82
2023-02-02T00:19:33.683Z,82
2023-02-02T00:20:05.405Z,82
2023-02-02T00:20:37.684Z,82
2023-02-02T00:21:08.875Z,82
2023-02-02T00:21:41.746Z,82
2023-02-02T00:22:12.786Z,82
2023-02-02T00:22:45.698Z,82
2023-02-02T00:23:17.000Z,82
2023-02-02T00:23:49.527Z,82
2023-02-02T00:24:20.794Z,82
2023-02-02T00:24:53.429Z,82
2023-02-02T00:25:25.598Z,82
2023-02-02T00:25:58.729Z,82
2023-02-02T00:26:28.825Z,82
2023-02-02T00:27:01.625Z,82
2023-02-02T00:27:32.739Z,82
2023-02-02T00:28:05.587Z,82
2023-02-02T01:00:23.067Z,84
2023-02-02T01:00:53.160Z,84
2023-02-02T01:01:25.576Z,84
2023-02-02T01:01:56.928Z,84
2023-02-02T01:02:29.712Z,85
2023-02-02T01:03:01.013Z,85
2023-02-02T01:03:33.807Z,84
2023-02-02T01:04:04.888Z,84
2023-02-02T01:04:37.516Z,84
2023-02-02T01:05:09.006Z,84
2023-02-02T01:05:41.473Z,84
2023-02-02T01:06:12.908Z,84
2023-02-02T01:06:45.680Z,84
2023-02-02T01:07:16.821Z,84
2023-02-02T01:07:49.820Z,84
2023-02-02T01:08:20.935Z,84
2023-02-02T01:08:55.509Z,85
2023-02-02T01:09:24.896Z,85
2023-02-02T01:09:57.761Z,85
2023-02-02T01:10:29.345Z,85
2023-02-02T01:11:01.603Z,85
2023-02-02T01:11:32.966Z,85
2023-02-02T01:12:05.823Z,85
2023-02-02T01:12:36.898Z,85
2023-02-02T01:13:09.671Z,85
2023-02-02T01:13:40.975Z,85
2023-02-02T01:14:13.766Z,85
2023-02-02T01:14:44.875Z,85
2023-02-02T01:15:18.891Z,85
2023-02-02T01:15:49.046Z,85
2023-02-02T01:16:21.894Z,85
2023-02-02T01:16:52.887Z,85
2023-02-02T01:17:25.667Z,85
2023-02-02T01:17:56.952Z,85
2023-02-02T01:18:29.615Z,85
2023-02-02T01:19:01.089Z,85
2023-02-02T01:19:33.775Z,85
2023-02-02T01:20:05.243Z,85
2023-02-02T01:20:37.791Z,85
2023-02-02T01:21:09.005Z,85
2023-02-02T01:21:41.591Z,85
2023-02-02T01:22:12.757Z,85
2023-02-02T01:22:45.942Z,85
2023-02-02T01:23:16.732Z,85
2023-02-02T01:23:52.452Z,85
2023-02-02T01:24:20.756Z,85
2023-02-02T01:24:53.613Z,85
2023-02-02T01:25:25.766Z,85
2023-02-02T01:25:57.722Z,85
2023-02-02T01:26:28.969Z,85
2023-02-02T01:27:02.661Z,85
2023-02-02T01:27:32.875Z,85
2023-02-02T01:28:05.884Z,85
2023-02-02T01:28:36.916Z,85
2023-02-02T01:29:09.488Z,85
2023-02-02T01:29:40.899Z,85
2023-02-02T01:30:14.943Z,85
2023-02-02T01:30:45.233Z,85
2023-02-02T01:31:17.640Z,85
2023-02-02T01:31:48.959Z,85
2023-02-02T01:32:21.740Z,85
2023-02-02T01:32:52.821Z,85
2023-02-02T01:33:25.410Z,85
2023-02-02T01:33:56.892Z,85
2023-02-02T01:34:29.696Z,85
2023-02-02T01:35:01.295Z,85
2023-02-02T01:35:33.803Z,84
2023-02-02T01:36:04.920Z,84
2023-02-02T01:36:37.494Z,84
2023-02-02T01:37:08.773Z,84
2023-02-02T01:37:41.618Z,85
2023-02-02T01:38:12.977Z,85
2023-02-02T01:38:45.768Z,85
2023-02-02T01:39:16.831Z,85
2023-02-02T01:39:49.556Z,85
2023-02-02T01:40:21.281Z,85
2023-02-02T01:40:53.587Z,84
2023-02-02T01:41:24.998Z,84
2023-02-02T01:41:57.468Z,83
2023-02-02T01:42:28.761Z,83
2023-02-02T01:43:01.817Z,82
2023-02-02T01:43:32.907Z,82
2023-02-02T01:44:05.645Z,82
2023-02-02T01:44:36.836Z,82
2023-02-02T01:45:11.223Z,82
2023-02-02T01:45:41.001Z,82
2023-02-02T01:46:13.855Z,83
2023-02-02T01:46:44.955Z,83
2023-02-02T01:47:17.702Z,83
2023-02-02T01:47:48.713Z,83
2023-02-02T01:48:22.394Z,84
2023-02-02T01:48:52.855Z,84
2023-02-02T01:49:25.579Z,84
2023-02-02T01:49:56.692Z,84
2023-02-02T01:50:29.868Z,85
2023-02-02T01:51:00.862Z,85
2023-02-02T01:51:33.618Z,85
2023-02-02T01:52:04.954Z,85
2023-02-02T01:52:37.996Z,85
2023-02-02T01:53:08.846Z,85
2023-02-02T01:53:41.722Z,86
2023-02-02T01:54:12.692Z,86
2023-02-02T01:54:45.683Z,86
2023-02-02T01:55:17.108Z,86
2023-02-02T01:55:50.011Z,87
2023-02-02T01:56:20.919Z,87
2023-02-02T01:56:53.778Z,87
2023-02-02T01:57:24.886Z,87
2023-02-02T01:57:57.735Z,88
2023-02-02T01:58:28.860Z,88
2023-02-02T01:59:01.775Z,88
2023-02-02T01:59:32.858Z,88
2023-02-02T02:00:07.494Z,89
2023-02-02T02:00:36.935Z,89
2023-02-02T02:01:09.760Z,89
2023-02-02T02:01:40.792Z,89
2023-02-02T02:02:13.750Z,89
2023-02-02T02:02:45.046Z,89
2023-02-02T02:03:17.606Z,89
2023-02-02T02:03:48.827Z,89
2023-02-02T02:04:21.628Z,88
2023-02-02T02:04:53.055Z,88
2023-02-02T02:05:26.288Z,88
2023-02-02T02:05:56.891Z,88
2023-02-02T02:06:29.919Z,87
2023-02-02T02:07:01.077Z,87
2023-02-02T02:07:33.924Z,87
2023-02-02T02:08:05.011Z,87
2023-02-02T02:08:37.856Z,87
2023-02-02T02:09:08.900Z,87
2023-02-02T02:09:41.879Z,88
2023-02-02T02:10:13.347Z,88
2023-02-02T02:10:45.864Z,88
2023-02-02T02:11:16.881Z,88
2023-02-02T02:11:49.981Z,88
2023-02-02T02:12:20.902Z,88
2023-02-02T02:12:53.817Z,88
2023-02-02T02:13:24.877Z,88
2023-02-02T02:13:58.041Z,88
2023-02-02T02:14:28.907Z,88
2023-02-02T02:14:45.022Z,89
2023-02-02T02:15:18.054Z,89
2023-02-02T02:15:49.010Z,89
2023-02-02T02:16:21.079Z,89
2023-02-02T02:16:52.990Z,89
2023-02-02T02:17:32.659Z,89
2023-02-02T02:17:56.994Z,89
2023-02-02T02:18:28.745Z,89
2023-02-02T02:19:01.852Z,89
2023-02-02T02:19:32.868Z,89
2023-02-02T02:20:06.306Z,89
2023-02-02T02:20:36.888Z,89
2023-02-02T02:21:09.840Z,90
2023-02-02T02:21:40.874Z,90
2023-02-02T02:22:13.838Z,90
2023-02-02T02:22:44.908Z,90
2023-02-02T02:23:17.670Z,90
2023-02-02T02:23:48.945Z,90
2023-02-02T02:24:21.845Z,90
2023-02-02T02:24:52.933Z,90
2023-02-02T02:25:26.319Z,91
2023-02-02T02:25:56.889Z,91
2023-02-02T02:26:30.054Z,91
2023-02-02T02:27:00.927Z,91
2023-02-02T02:27:33.770Z,91
2023-02-02T02:28:04.929Z,91
2023-02-02T02:28:37.761Z,91
2023-02-02T02:29:08.921Z,91
2023-02-02T02:29:42.554Z,92
2023-02-02T02:30:14.209Z,92
2023-02-02T02:30:45.950Z,92
2023-02-02T02:31:17.124Z,92
2023-02-02T02:31:49.925Z,92
2023-02-02T02:32:21.014Z,92
2023-02-02T02:32:54.389Z,92
2023-02-02T02:33:25.053Z,92
2023-02-02T02:33:57.605Z,93
2023-02-02T02:34:28.834Z,93
2023-02-02T02:35:02.352Z,93
2023-02-02T02:35:32.903Z,93
2023-02-02T02:36:06.713Z,93
2023-02-02T02:36:37.042Z,93
2023-02-02T02:37:09.838Z,93
2023-02-02T02:37:40.863Z,93
2023-02-02T02:38:13.789Z,94
2023-02-02T02:38:44.973Z,94
2023-02-02T02:39:17.728Z,94
2023-02-02T02:39:48.812Z,94
2023-02-02T02:40:22.109Z,94
2023-02-02T02:40:52.873Z,94
2023-02-02T02:41:25.739Z,94
2023-02-02T02:41:56.828Z,94
2023-02-02T02:42:30.110Z,95
2023-02-02T02:43:01.051Z,95
2023-02-02T02:43:33.757Z,95
2023-02-02T02:44:04.965Z,95
2023-02-02T02:44:40.995Z,95
2023-02-02T02:45:10.301Z,95
2023-02-02T02:45:42.022Z,95
2023-02-02T02:46:13.359Z,95
2023-02-02T02:46:46.969Z,95
2023-02-02T02:47:16.929Z,95
2023-02-02T02:47:49.902Z,95
2023-02-02T02:48:21.089Z,95
2023-02-02T02:48:53.728Z,95
2023-02-02T02:49:25.047Z,95
2023-02-02T02:49:57.933Z,95
2023-02-02T02:50:29.209Z,95
2023-02-02T02:51:01.722Z,95
2023-02-02T02:51:32.978Z,95
2023-02-02T02:52:05.824Z,95
2023-02-02T02:52:36.874Z,95
2023-02-02T02:53:09.844Z,95
2023-02-02T02:53:41.004Z,95
2023-02-02T02:54:13.704Z,95
2023-02-02T02:54:44.988Z,95
2023-02-02T02:55:18.017Z,95
2023-02-02T02:55:48.974Z,95
2023-02-02T02:56:21.638Z,95
2023-02-02T02:56:52.923Z,95
2023-02-02T02:57:27.018Z,95
2023-02-02T02:57:56.997Z,95
2023-02-02T02:58:12.976Z,95
2023-02-02T02:58:45.132Z,95
2023-02-02T02:59:16.858Z,95
2023-02-02T02:59:49.918Z,95
2023-02-02T03:00:22.318Z,95
2023-02-02T03:00:53.759Z,95
2023-02-02T03:01:24.874Z,95
2023-02-02T03:01:57.816Z,95
2023-02-02T03:02:28.845Z,95
2023-02-02T03:03:01.957Z,95
2023-02-02T03:03:32.943Z,95
2023-02-02T03:04:06.318Z,95
2023-02-02T03:04:36.781Z,95
2023-02-02T03:05:11.009Z,95
2023-02-02T03:05:40.910Z,95
2023-02-02T03:06:13.600Z,96
2023-02-02T03:06:44.827Z,96
2023-02-02T03:07:17.929Z,95
2023-02-02T03:07:48.948Z,95
2023-02-02T03:08:21.751Z,96
2023-02-02T03:08:52.821Z,96
2023-02-02T03:09:25.717Z,96
2023-02-02T03:09:56.936Z,96
2023-02-02T03:10:30.045Z,96
2023-02-02T03:11:00.992Z,96
2023-02-02T03:11:33.424Z,96
2023-02-02T03:12:04.848Z,96
2023-02-02T03:12:37.862Z,96
2023-02-02T03:13:08.854Z,96
2023-02-02T03:13:41.659Z,96
2023-02-02T03:14:12.744Z,96
2023-02-02T03:14:45.926Z,96
2023-02-02T03:15:19.013Z,96
2023-02-02T03:15:50.367Z,96
2023-02-02T03:17:25.167Z,96
2023-02-02T03:17:58.074Z,96
2023-02-02T03:18:29.030Z,96
2023-02-02T03:19:04.930Z,96
2023-02-02T03:19:32.980Z,96
2023-02-02T03:20:07.078Z,96
2023-02-02T03:20:37.204Z,96
2023-02-02T03:21:09.911Z,96
2023-02-02T03:21:41.209Z,96
2023-02-02T03:22:14.165Z,96
2023-02-02T03:22:45.037Z,96
2023-02-02T03:23:17.970Z,96
2023-02-02T03:23:49.139Z,96
2023-02-02T03:24:23.004Z,96
2023-02-02T03:24:53.065Z,96
2023-02-02T03:25:26.622Z,96
2023-02-02T03:25:57.173Z,96
2023-02-02T03:26:30.065Z,96
2023-02-02T03:27:00.889Z,96
2023-02-02T03:27:33.856Z,96
2023-02-02T03:28:05.079Z,96
2023-02-02T03:28:38.020Z,96
2023-02-02T03:29:09.019Z,96
2023-02-02T03:29:41.755Z,96
2023-02-02T03:30:13.925Z,96
2023-02-02T03:30:45.908Z,96
2023-02-02T03:31:16.920Z,96
2023-02-02T03:31:49.938Z,96
2023-02-02T03:32:20.981Z,96
2023-02-02T03:32:53.997Z,96
2023-02-02T03:33:25.060Z,96
2023-02-02T03:33:57.720Z,96
2023-02-02T03:34:28.833Z,96
2023-02-02T03:35:17.478Z,96
2023-02-02T03:35:49.028Z,96
2023-02-02T03:36:21.014Z,96
2023-02-02T03:36:53.338Z,96
2023-02-02T03:37:25.318Z,96
2023-02-02T03:37:56.869Z,97
2023-02-02T03:38:29.083Z,97
2023-02-02T03:39:00.909Z,97
2023-02-02T03:39:33.021Z,97
2023-02-02T03:40:05.463Z,96
2023-02-02T03:40:36.994Z,96
2023-02-02T03:41:11.674Z,96
2023-02-02T03:41:41.062Z,96
2023-02-02T03:42:14.873Z,96
2023-02-02T03:42:44.785Z,96
2023-02-02T03:43:17.740Z,96
2023-02-02T03:43:48.974Z,96
2023-02-02T03:44:21.905Z,96
2023-02-02T03:44:52.954Z,96
2023-02-02T03:45:27.327Z,96
2023-02-02T03:45:57.071Z,96
2023-02-02T03:46:29.933Z,96
2023-02-02T03:47:00.964Z,96
2023-02-02T03:47:33.952Z,96
2023-02-02T03:48:04.797Z,96
2023-02-02T03:48:38.006Z,96
2023-02-02T03:49:08.972Z,96
2023-02-02T03:49:42.641Z,96
2023-02-02T03:50:13.183Z,96
2023-02-02T03:50:46.003Z,96
2023-02-02T03:51:17.165Z,96
2023-02-02T03:51:49.652Z,96
2023-02-02T03:52:20.940Z,96
2023-02-02T03:52:53.848Z,96
2023-02-02T03:53:24.969Z,96
2023-02-02T03:53:57.805Z,96
2023-02-02T03:54:28.973Z,96
2023-02-02T03:55:02.551Z,96
2023-02-02T03:55:32.916Z,96
2023-02-02T03:56:05.828Z,96
2023-02-02T03:56:36.900Z,96
2023-02-02T03:57:09.574Z,96
2023-02-02T03:57:40.822Z,96
2023-02-02T03:58:13.750Z,96
2023-02-02T03:58:44.949Z,96
2023-02-02T03:59:17.553Z,96
2023-02-02T03:59:48.861Z,96
2023-02-02T04:00:23.164Z,96
2023-02-02T04:00:52.829Z,96
2023-02-02T04:01:25.730Z,96
2023-02-02T04:01:57.020Z,96
2023-02-02T04:02:30.704Z,96
2023-02-02T04:03:00.892Z,96
2023-02-02T04:03:33.842Z,96
2023-02-02T04:04:04.972Z,96
2023-02-02T04:04:37.617Z,96
2023-02-02T04:05:09.235Z,96
2023-02-02T04:05:41.915Z,96
2023-02-02T04:06:13.075Z,96
2023-02-02T04:06:47.030Z,96
2023-02-02T04:07:17.110Z,96
2023-02-02T04:07:50.192Z,96
2023-02-02T04:08:21.008Z,96
2023-02-02T04:08:53.926Z,96
2023-02-02T04:09:25.083Z,96
2023-02-02T04:09:57.903Z,96
2023-02-02T04:10:29.484Z,96
2023-02-02T04:11:02.209Z,96
2023-02-02T04:11:33.154Z,96
2023-02-02T04:12:05.946Z,96
2023-02-02T04:12:37.001Z,96
2023-02-02T04:13:09.907Z,96
2023-02-02T04:13:41.128Z,96
2023-02-02T04:14:13.843Z,96
2023-02-02T04:14:45.209Z,96
2023-02-02T04:15:19.496Z,96
2023-02-02T04:15:49.192Z,96
2023-02-02T04:16:21.853Z,96
2023-02-02T04:16:53.258Z,96
2023-02-02T04:17:26.278Z,96
2023-02-02T04:17:57.088Z,96
2023-02-02T04:18:29.919Z,96
2023-02-02T04:19:01.145Z,96
2023-02-02T04:19:33.894Z,96
2023-02-02T04:20:05.456Z,96
2023-02-02T04:20:37.951Z,96
2023-02-02T04:21:08.973Z,96
2023-02-02T04:21:43.949Z,96
2023-02-02T04:22:13.251Z,96
2023-02-02T04:22:45.932Z,97
2023-02-02T04:23:16.917Z,97
2023-02-02T04:23:49.828Z,97
2023-02-02T04:24:21.137Z,97
2023-02-02T04:24:53.879Z,97
2023-02-02T04:25:25.652Z,97
2023-02-02T04:25:59.100Z,96
2023-02-02T04:26:29.321Z,96
2023-02-02T04:27:01.914Z,96
2023-02-02T04:27:32.914Z,96
2023-02-02T04:28:06.142Z,96
2023-02-02T04:28:37.101Z,96
2023-02-02T04:29:09.813Z,96
2023-02-02T04:29:41.126Z,96
2023-02-02T04:30:15.224Z,96
2023-02-02T04:30:45.229Z,96
2023-02-02T04:31:18.021Z,96
2023-02-02T04:31:49.196Z,96
2023-02-02T04:32:21.912Z,96
2023-02-02T04:32:52.882Z,96
2023-02-02T04:33:25.926Z,96
2023-02-02T04:33:57.136Z,96
2023-02-02T04:34:30.341Z,96
2023-02-02T04:35:01.438Z,96
2023-02-02T04:35:34.073Z,96
2023-02-02T04:36:04.929Z,96
2023-02-02T04:36:38.326Z,96
2023-02-02T04:37:08.864Z,96
2023-02-02T04:37:43.004Z,96
2023-02-02T04:38:12.852Z,96
2023-02-02T04:38:46.078Z,96
2023-02-02T04:39:17.025Z,96
2023-02-02T04:39:50.036Z,96
2023-02-02T04:40:21.378Z,96
2023-02-02T04:40:53.880Z,96
2023-02-02T04:41:24.992Z,96
2023-02-02T04:41:57.804Z,96
2023-02-02T04:42:29.142Z,96
2023-02-02T04:43:02.879Z,96
2023-02-02T04:43:32.819Z,96
2023-02-02T04:44:05.689Z,96
2023-02-02T04:44:36.987Z,96
2023-02-02T04:45:11.230Z,96
2023-02-02T04:45:41.153Z,96
2023-02-02T04:46:14.040Z,97
2023-02-02T04:46:45.082Z,97
2023-02-02T04:47:17.989Z,97
2023-02-02T04:47:48.986Z,97
2023-02-02T04:48:21.881Z,97
2023-02-02T04:48:53.155Z,97
2023-02-02T04:49:25.914Z,97
2023-02-02T04:49:56.993Z,97
2023-02-02T04:50:30.422Z,97
2023-02-02T04:51:00.989Z,97
2023-02-02T04:51:34.275Z,97
2023-02-02T04:52:05.316Z,97
2023-02-02T04:52:39.761Z,97
2023-02-02T04:53:09.034Z,97
2023-02-02T04:53:42.068Z,97
2023-02-02T04:54:13.171Z,97
2023-02-02T04:54:45.833Z,97
2023-02-02T04:55:17.418Z,97
2023-02-02T04:55:49.932Z,97
2023-02-02T04:56:21.132Z,97
2023-02-02T04:56:53.778Z,97
2023-02-02T04:57:24.999Z,97
2023-02-02T04:57:58.049Z,97
2023-02-02T04:58:28.990Z,97
2023-02-02T04:59:01.996Z,97
2023-02-02T04:59:33.120Z,97
2023-02-02T05:00:14.770Z,97
2023-02-02T05:00:37.205Z,97
2023-02-02T05:01:09.281Z,97
2023-02-02T05:01:41.234Z,97
2023-02-02T05:02:13.182Z,97
2023-02-02T05:02:49.872Z,97
2023-02-02T05:03:17.023Z,97
2023-02-02T05:03:49.114Z,97
2023-02-02T05:04:21.053Z,96
2023-02-02T05:04:53.208Z,96
2023-02-02T05:05:25.779Z,96
2023-02-02T05:05:57.138Z,96
2023-02-02T05:06:31.979Z,96
2023-02-02T05:07:01.146Z,96
2023-02-02T05:07:35.059Z,96
2023-02-02T05:08:05.091Z,96
2023-02-02T05:08:38.164Z,96
2023-02-02T05:09:09.036Z,96
2023-02-02T05:09:42.774Z,96
2023-02-02T05:10:13.342Z,96
2023-02-02T05:10:45.900Z,96
2023-02-02T05:11:17.216Z,96
2023-02-02T05:11:49.669Z,96
2023-02-02T05:12:20.972Z,96
2023-02-02T05:12:54.964Z,96
2023-02-02T05:13:24.965Z,96
2023-02-02T05:13:57.737Z,96
2023-02-02T05:14:28.957Z,96
2023-02-02T05:15:03.730Z,96
2023-02-02T05:15:33.113Z,96
2023-02-02T05:16:05.848Z,96
2023-02-02T05:16:37.017Z,96
2023-02-02T05:17:10.630Z,96
2023-02-02T05:17:40.919Z,96
2023-02-02T05:18:13.618Z,96
2023-02-02T05:18:45.000Z,96
2023-02-02T05:19:17.600Z,96
2023-02-02T05:19:48.987Z,96
2023-02-02T05:20:22.196Z,96
2023-02-02T05:20:52.858Z,96
2023-02-02T05:21:25.725Z,96
2023-02-02T05:21:57.045Z,96
2023-02-02T05:22:29.783Z,96
2023-02-02T05:23:01.127Z,96
2023-02-02T05:23:34.816Z,96
2023-02-02T05:24:04.836Z,96
2023-02-02T05:24:38.026Z,96
2023-02-02T05:25:09.504Z,96
2023-02-02T05:25:42.157Z,97
2023-02-02T05:26:13.011Z,97
2023-02-02T05:26:46.211Z,97
2023-02-02T05:27:17.056Z,97
2023-02-02T05:27:49.855Z,97
2023-02-02T05:28:21.020Z,97
2023-02-02T05:28:53.935Z,97
2023-02-02T05:29:25.025Z,97
2023-02-02T05:29:57.817Z,97
2023-02-02T05:30:33.203Z,97
2023-02-02T05:31:02.192Z,97
2023-02-02T05:31:33.054Z,97
2023-02-02T05:32:06.048Z,97
2023-02-02T05:32:37.153Z,97
2023-02-02T05:33:11.892Z,97
2023-02-02T05:33:41.089Z,97
2023-02-02T05:34:13.660Z,97
2023-02-02T05:34:44.993Z,97
2023-02-02T05:35:18.086Z,97
2023-02-02T05:35:49.119Z,97
2023-02-02T05:36:21.825Z,97
2023-02-02T05:36:53.443Z,97
2023-02-02T05:37:26.910Z,97
2023-02-02T05:37:59.230Z,97
2023-02-02T05:38:29.783Z,97
2023-02-02T05:39:01.313Z,97
2023-02-02T05:39:34.096Z,97
2023-02-02T05:40:05.867Z,97
2023-02-02T05:40:38.061Z,97
2023-02-02T05:41:09.063Z,97
2023-02-02T05:41:43.112Z,97
2023-02-02T05:42:13.776Z,97
2023-02-02T05:42:46.282Z,97
2023-02-02T05:43:17.202Z,97
2023-02-02T05:43:49.664Z,97
2023-02-02T05:44:21.065Z,97
2023-02-02T05:44:53.566Z,97
2023-02-02T05:45:26.273Z,97
2023-02-02T05:45:58.072Z,97
2023-02-02T05:46:28.762Z,97
2023-02-02T05:47:01.965Z,97
2023-02-02T05:47:33.165Z,97
2023-02-02T05:48:06.098Z,97
2023-02-02T05:48:37.110Z,97
2023-02-02T05:49:09.813Z,97
2023-02-02T05:49:40.994Z,97
2023-02-02T05:50:14.099Z,97
2023-02-02T05:50:45.071Z,97
2023-02-02T05:51:17.860Z,97
2023-02-02T05:51:49.162Z,97
2023-02-02T05:52:21.908Z,97
2023-02-02T05:52:53.039Z,97
2023-02-02T05:53:26.023Z,97
2023-02-02T05:53:57.251Z,97
2023-02-02T05:54:12.984Z,97
2023-02-02T05:54:45.106Z,97
2023-02-02T05:55:17.372Z,97
2023-02-02T05:55:49.917Z,97
2023-02-02T05:56:21.038Z,97
2023-02-02T05:56:53.905Z,97
2023-02-02T05:57:25.160Z,97
2023-02-02T05:57:58.021Z,97
2023-02-02T05:58:29.163Z,97
2023-02-02T05:59:01.993Z,97
2023-02-02T05:59:33.426Z,97
2023-02-02T06:00:08.913Z,97
2023-02-02T06:00:37.232Z,97
2023-02-02T06:01:09.978Z,97
2023-02-02T06:01:41.026Z,97
2023-02-02T06:02:14.178Z,97
2023-02-02T06:02:45.105Z,97
2023-02-02T06:03:18.025Z,97
2023-02-02T06:03:49.407Z,97
2023-02-02T06:04:21.849Z,97
2023-02-02T06:04:53.152Z,97
2023-02-02T06:05:26.654Z,97
2023-02-02T06:05:57.103Z,97
2023-02-02T06:06:30.885Z,97
2023-02-02T06:07:01.226Z,97
2023-02-02T06:07:34.312Z,97
2023-02-02T06:08:05.047Z,97
2023-02-02T06:08:38.043Z,97
2023-02-02T06:09:09.080Z,97
2023-02-02T06:09:42.028Z,97
2023-02-02T06:10:13.478Z,97
2023-02-02T06:10:45.866Z,97
2023-02-02T06:11:17.169Z,97
2023-02-02T06:11:49.870Z,97
2023-02-02T06:12:21.150Z,97
2023-02-02T06:12:53.958Z,97
2023-02-02T06:13:25.086Z,97
2023-02-02T06:14:02.007Z,97
2023-02-02T06:14:28.989Z,97
2023-02-02T06:15:02.853Z,97
2023-02-02T06:15:33.482Z,97
2023-02-02T06:16:05.393Z,97
2023-02-02T06:16:37.216Z,97
2023-02-02T06:17:09.493Z,97
2023-02-02T06:17:40.980Z,97
2023-02-02T06:18:13.064Z,97
2023-02-02T06:18:45.053Z,97
2023-02-02T06:19:16.978Z,97
2023-02-02T06:19:49.735Z,97
2023-02-02T06:20:22.571Z,97
2023-02-02T06:20:53.924Z,97
2023-02-02T06:21:25.164Z,97
2023-02-02T06:21:58.024Z,97
2023-02-02T06:22:29.078Z,97
2023-02-02T06:23:01.972Z,97
2023-02-02T06:23:32.992Z,97
2023-02-02T06:24:06.037Z,97
2023-02-02T06:24:37.208Z,97
2023-02-02T06:25:10.148Z,97
2023-02-02T06:25:41.139Z,97
2023-02-02T06:26:14.135Z,97
2023-02-02T06:26:45.235Z,97
2023-02-02T06:27:19.045Z,97
2023-02-02T06:27:49.002Z,97
2023-02-02T06:28:21.924Z,97
2023-02-02T06:28:53.145Z,97
2023-02-02T06:29:26.031Z,97
2023-02-02T06:29:57.345Z,97
2023-02-02T06:30:30.888Z,97
2023-02-02T06:31:01.157Z,97
2023-02-02T06:31:36.179Z,97
2023-02-02T06:32:05.397Z,97
2023-02-02T06:32:38.002Z,97
2023-02-02T06:33:09.151Z,97
2023-02-02T06:33:43.228Z,97
2023-02-02T06:34:12.947Z,97
2023-02-02T06:34:46.113Z,97
2023-02-02T06:35:17.484Z,97
2023-02-02T06:35:49.861Z,97
2023-02-02T06:36:21.098Z,97
2023-02-02T06:36:54.888Z,97
2023-02-02T06:37:25.308Z,97
2023-02-02T06:38:02.058Z,97
2023-02-02T06:38:28.980Z,97
2023-02-02T06:39:01.077Z,97
2023-02-02T06:39:33.291Z,97
2023-02-02T06:40:05.487Z,97
2023-02-02T06:40:37.828Z,97
2023-02-02T06:41:09.070Z,97
2023-02-02T06:41:41.873Z,97
2023-02-02T06:42:21.084Z,97
2023-02-02T06:42:46.950Z,97
2023-02-02T06:43:17.168Z,97
2023-02-02T06:43:50.227Z,97
2023-02-02T06:44:21.149Z,97
2023-02-02T06:44:56.030Z,97
2023-02-02T06:45:26.408Z,97
2023-02-02T06:45:58.292Z,97
2023-02-02T06:46:29.218Z,97
2023-02-02T06:47:01.900Z,97
2023-02-02T06:47:33.028Z,97
2023-02-02T06:48:06.026Z,97
2023-02-02T06:48:37.355Z,97
2023-02-02T06:49:09.919Z,97
2023-02-02T06:49:41.028Z,97
2023-02-02T06:50:15.049Z,97
2023-02-02T06:50:45.125Z,97
2023-02-02T06:51:17.980Z,97
2023-02-02T06:51:49.140Z,97
2023-02-02T06:52:21.955Z,97
2023-02-02T06:52:53.116Z,97
2023-02-02T06:53:26.027Z,97
2023-02-02T06:53:59.386Z,97
2023-02-02T06:54:29.776Z,97
2023-02-02T06:55:01.594Z,97
2023-02-02T06:55:34.115Z,97
2023-02-02T06:56:05.126Z,97
2023-02-02T06:56:37.829Z,97
2023-02-02T06:57:09.249Z,97
2023-02-02T06:57:42.148Z,97
2023-02-02T06:58:13.024Z,97
2023-02-02T06:58:45.986Z,97
2023-02-02T06:59:17.043Z,97
2023-02-02T06:59:50.026Z,97
2023-02-02T07:00:22.567Z,97
2023-02-02T07:00:54.187Z,97
2023-02-02T07:01:25.029Z,97
2023-02-02T07:01:58.893Z,97
2023-02-02T07:02:29.048Z,97
2023-02-02T07:03:02.271Z,97
2023-02-02T07:03:33.097Z,97
2023-02-02T07:04:07.947Z,97
2023-02-02T07:04:37.140Z,97
2023-02-02T07:05:10.004Z,97
2023-02-02T07:05:41.239Z,97
2023-02-02T07:06:15.805Z,97
2023-02-02T07:06:45.196Z,97
2023-02-02T07:07:18.008Z,97
2023-02-02T07:07:49.361Z,97
2023-02-02T07:08:22.006Z,97
2023-02-02T07:09:02.191Z,97
2023-02-02T07:09:25.924Z,97
2023-02-02T07:09:58.034Z,97
2023-02-02T07:11:13.104Z,97
2023-02-02T07:11:14.000Z,97
2023-02-02T07:11:35.332Z,97
2023-02-02T07:12:05.196Z,97
2023-02-02T07:12:38.135Z,97
2023-02-02T07:13:09.085Z,97
2023-02-02T07:13:42.091Z,97
2023-02-02T07:14:13.335Z,97
2023-02-02T07:14:46.122Z,97
2023-02-02T07:15:18.325Z,97
2023-02-02T07:15:50.333Z,97
2023-02-02T07:16:21.032Z,97
2023-02-02T07:16:55.210Z,97
2023-02-02T07:17:25.106Z,97
2023-02-02T07:17:58.006Z,97
2023-02-02T07:18:29.068Z,97
2023-02-02T07:19:01.956Z,97
2023-02-02T07:19:33.187Z,97
2023-02-02T07:20:06.278Z,97
2023-02-02T07:20:37.061Z,97
2023-02-02T07:21:09.954Z,97
2023-02-02T07:21:41.094Z,97
2023-02-02T07:22:13.962Z,97
2023-02-02T07:22:45.071Z,97
2023-02-02T07:23:18.013Z,98
2023-02-02T07:23:49.035Z,98
2023-02-02T07:24:22.202Z,97
2023-02-02T07:24:53.285Z,97
2023-02-02T07:25:26.715Z,97
2023-02-02T07:25:57.390Z,97
2023-02-02T07:26:30.372Z,97
2023-02-02T07:27:01.456Z,97
2023-02-02T07:27:34.959Z,97
2023-02-02T07:28:05.209Z,97
2023-02-02T07:28:38.478Z,97
2023-02-02T07:29:09.153Z,97
2023-02-02T07:29:42.203Z,97
2023-02-02T07:30:14.368Z,97
2023-02-02T07:30:46.620Z,97
2023-02-02T07:31:17.502Z,97
2023-02-02T07:31:50.210Z,97
2023-02-02T07:32:21.292Z,97
2023-02-02T07:32:55.711Z,97
2023-02-02T07:33:26.193Z,97
2023-02-02T07:33:58.496Z,97
2023-02-02T07:34:29.900Z,97
2023-02-02T07:35:02.736Z,97
2023-02-02T07:35:33.555Z,97
2023-02-02T07:36:06.243Z,97
2023-02-02T07:36:37.257Z,97
2023-02-02T07:37:10.391Z,98
2023-02-02T07:37:41.492Z,98
2023-02-02T07:38:14.262Z,97
2023-02-02T07:38:45.234Z,97
2023-02-02T07:39:18.214Z,97
2023-02-02T07:39:49.628Z,97
2023-02-02T07:40:23.496Z,97
2023-02-02T07:40:53.385Z,97
2023-02-02T07:41:26.255Z,98
2023-02-02T07:41:57.357Z,98
2023-02-02T07:42:31.202Z,97
2023-02-02T07:43:02.536Z,97
2023-02-02T07:43:34.730Z,97
2023-02-02T07:44:05.457Z,97
2023-02-02T07:44:38.330Z,97
2023-02-02T07:45:25.518Z,97
2023-02-02T07:45:42.729Z,98
2023-02-02T07:46:13.328Z,98
2023-02-02T07:46:46.276Z,98
2023-02-02T07:47:17.404Z,98
2023-02-02T07:47:50.161Z,98
2023-02-02T07:48:21.309Z,98
2023-02-02T07:48:54.272Z,98
2023-02-02T07:49:25.627Z,98
2023-02-02T07:49:58.095Z,98
2023-02-02T07:50:29.815Z,98
2023-02-02T07:51:02.445Z,98
2023-02-02T07:51:33.373Z,98
2023-02-02T07:52:06.337Z,97
2023-02-02T07:52:37.308Z,97
2023-02-02T07:53:10.550Z,97
2023-02-02T07:53:41.278Z,97
2023-02-02T07:54:14.240Z,97
2023-02-02T07:54:45.502Z,97
2023-02-02T07:55:18.496Z,97
2023-02-02T07:55:49.347Z,97
2023-02-02T07:56:22.395Z,97
2023-02-02T07:56:53.421Z,97
2023-02-02T07:57:26.162Z,97
2023-02-02T07:57:57.298Z,97
2023-02-02T07:58:30.268Z,97
2023-02-02T07:59:01.332Z,97
2023-02-02T07:59:34.165Z,97
2023-02-02T08:00:07.156Z,97
2023-02-02T08:00:38.840Z,97
2023-02-02T08:01:09.566Z,97
2023-02-02T08:01:42.235Z,97
2023-02-02T08:02:13.256Z,97
2023-02-02T08:02:46.276Z,97
2023-02-02T08:03:17.178Z,97
2023-02-02T08:03:50.148Z,97
2023-02-02T08:04:21.453Z,97
2023-02-02T08:04:54.459Z,97
2023-02-02T08:05:25.939Z,97
2023-02-02T08:05:58.041Z,97
2023-02-02T08:06:29.283Z,97
2023-02-02T08:06:45.465Z,97
2023-02-02T08:07:17.301Z,97
2023-02-02T08:07:49.131Z,97
2023-02-02T08:08:22.255Z,97